Time;durP1;ratioP1;P1;durP2;ratioP2;P2;SDS_P1;SDS_P2;PMS_P1;PMS_P2;Temp;Humidity;BMP_temperature;BMP_pressure;BME280_temperature;BME280_humidity;BME280_pressure;Samples;Min_cycle;Max_cycle;Signal;HPM_P1;HPM_P2
2022/06/09 00:00:11;;;;;;;1.40;1.30;;;;;;;17.55;83.41;98690.56;5095317;28;20040;-63
2022/06/09 00:02:46;;;;;;;1.48;0.85;;;;;;;17.52;83.53;98690.69;5095321;28;20044;-63
2022/06/09 00:05:15;;;;;;;1.45;1.35;;;;;;;17.48;83.31;98688.28;5094893;28;20040;-63
2022/06/09 00:07:49;;;;;;;3.58;1.75;;;;;;;17.46;83.39;98687.53;5095308;28;20091;-64
2022/06/09 00:10:22;;;;;;;0.77;0.77;;;;;;;17.39;83.41;98690.38;5094881;28;20131;-62
2022/06/09 00:12:51;;;;;;;3.10;1.85;;;;;;;17.39;83.24;98689.53;5095200;28;20040;-64
2022/06/09 00:15:20;;;;;;;2.25;2.05;;;;;;;17.33;83.16;98677.75;5094578;28;20040;-63
2022/06/09 00:17:49;;;;;;;0.75;0.75;;;;;;;17.31;82.90;98678.72;5094994;28;20054;-62
2022/06/09 00:20:27;;;;;;;0.60;0.60;;;;;;;17.28;82.95;98682.25;5094802;28;20036;-63
2022/06/09 00:22:57;;;;;;;0.63;0.60;;;;;;;17.27;82.83;98678.03;5094959;28;20453;-62
2022/06/09 00:25:26;;;;;;;1.73;1.63;;;;;;;17.25;82.97;98684.97;5094490;28;20067;-62
2022/06/09 00:27:55;;;;;;;0.90;0.80;;;;;;;17.23;82.82;98684.19;5094503;28;20038;-62
2022/06/09 00:30:24;;;;;;;1.17;1.07;;;;;;;17.24;82.95;98683.31;5094393;28;20522;-64
2022/06/09 00:32:53;;;;;;;1.63;1.53;;;;;;;17.21;82.69;98675.69;5094402;28;20424;-62
2022/06/09 00:35:22;;;;;;;1.23;1.13;;;;;;;17.22;82.49;98685.13;5094210;28;20036;-63
2022/06/09 00:38:01;;;;;;;0.60;0.60;;;;;;;17.20;82.56;98676.59;5094249;28;20552;-64
2022/06/09 00:40:40;;;;;;;1.02;1.00;;;;;;;17.20;82.54;98686.09;5094324;28;20051;-64
2022/06/09 00:43:08;;;;;;;0.53;0.53;;;;;;;17.19;82.85;98672.34;5094290;28;20521;-62
2022/06/09 00:45:43;;;;;;;1.33;0.80;;;;;;;17.14;82.52;98683.75;5092878;28;20044;-63
2022/06/09 00:48:22;;;;;;;0.80;0.80;;;;;;;17.11;82.66;98682.16;5094181;28;20045;-63
2022/06/09 00:50:57;;;;;;;2.05;1.65;;;;;;;17.09;82.56;98680.53;5094132;28;20052;-63
2022/06/09 00:53:39;;;;;;;1.05;1.00;;;;;;;17.10;82.61;98683.06;5094057;28;20052;-63
2022/06/09 00:56:11;;;;;;;1.35;1.25;;;;;;;17.10;82.51;98672.75;5094125;28;20036;-62
2022/06/09 00:58:43;;;;;;;0.98;0.70;;;;;;;17.10;82.70;98670.19;5093993;28;20052;-62
2022/06/09 01:01:17;;;;;;;0.90;0.90;;;;;;;17.08;82.36;98678.88;5093939;28;20048;-62
2022/06/09 01:04:00;;;;;;;2.00;1.35;;;;;;;17.01;82.63;98673.13;5093923;28;20063;-63
2022/06/09 01:06:34;;;;;;;1.52;1.08;;;;;;;17.00;82.55;98681.78;5093823;28;20127;-62
2022/06/09 01:09:08;;;;;;;2.00;1.63;;;;;;;16.98;82.49;98670.72;5093874;28;20497;-62
2022/06/09 01:11:37;;;;;;;1.08;1.02;;;;;;;16.99;82.71;98674.94;5093800;28;20131;-62
2022/06/09 01:14:08;;;;;;;0.90;0.90;;;;;;;16.94;82.60;98679.44;5094145;28;20060;-63
2022/06/09 01:16:48;;;;;;;1.17;1.08;;;;;;;16.87;82.73;98680.63;5093616;28;20398;-63
2022/06/09 01:19:56;;;;;;;0.52;0.52;;;;;;;16.80;82.66;98674.03;5093698;28;20048;-63
2022/06/09 01:22:59;;;;;;;0.85;0.85;;;;;;;16.84;83.09;98674.78;5085689;28;20047;-62
2022/06/09 01:25:58;;;;;;;0.95;0.88;;;;;;;16.89;83.11;98672.84;5091579;28;20139;-62
2022/06/09 01:28:51;;;;;;;1.60;1.10;;;;;;;16.90;83.12;98670.19;5091449;28;20056;-63
2022/06/09 01:31:29;;;;;;;0.80;0.77;;;;;;;16.82;82.84;98672.22;5091566;28;20048;-63
2022/06/09 01:34:05;;;;;;;0.85;0.85;;;;;;;16.74;82.87;98672.59;5091526;28;20059;-63
2022/06/09 01:36:40;;;;;;;1.65;1.17;;;;;;;16.67;83.39;98670.31;5090530;28;20056;-63
2022/06/09 01:39:10;;;;;;;0.60;0.60;;;;;;;16.67;83.52;98672.91;5091413;28;20054;-63
2022/06/09 01:41:48;;;;;;;0.95;0.93;;;;;;;16.64;83.52;98678.16;5091469;28;20040;-63
2022/06/09 01:44:18;;;;;;;1.33;1.08;;;;;;;16.59;83.69;98680.09;5095666;28;20067;-62
2022/06/09 01:46:49;;;;;;;0.85;0.80;;;;;;;16.60;83.71;98682.59;5095624;28;20048;-63
2022/06/09 01:49:26;;;;;;;0.65;0.65;;;;;;;16.60;83.65;98677.44;5095481;28;20051;-62
2022/06/09 01:51:57;;;;;;;0.70;0.70;;;;;;;16.59;83.54;98680.09;5095516;28;20048;-63
2022/06/09 01:54:31;;;;;;;0.90;0.88;;;;;;;16.47;83.62;98675.41;5097834;28;20055;-62
2022/06/09 01:57:08;;;;;;;6.57;1.00;;;;;;;16.47;84.30;98680.56;5097316;28;20040;-63
2022/06/09 01:59:51;;;;;;;1.48;1.38;;;;;;;16.48;84.33;98675.38;5097416;28;20054;-62
2022/06/09 02:02:27;;;;;;;2.92;1.50;;;;;;;16.46;84.29;98674.56;5097659;28;20075;-63
2022/06/09 02:05:00;;;;;;;2.55;1.17;;;;;;;16.46;84.56;98668.59;5097287;28;20044;-63
2022/06/09 02:07:33;;;;;;;0.82;0.82;;;;;;;16.36;84.77;98646.69;5097244;28;20105;-63
2022/06/09 02:10:16;;;;;;;1.17;1.08;;;;;;;16.43;84.90;98653.25;5097495;28;20052;-63
2022/06/09 02:12:46;;;;;;;1.25;1.08;;;;;;;16.52;84.91;98663.22;5097173;28;20131;-62
2022/06/09 02:15:26;;;;;;;2.78;1.40;;;;;;;16.55;84.98;98668.25;5097110;28;20048;-63
2022/06/09 02:17:57;;;;;;;1.10;0.90;;;;;;;16.51;84.86;98661.50;5097062;28;20083;-63
2022/06/09 02:20:26;;;;;;;0.90;0.90;;;;;;;16.53;85.10;98662.31;5096997;28;20044;-62
2022/06/09 02:22:54;;;;;;;1.90;1.20;;;;;;;16.54;85.32;98661.41;5096941;28;20044;-62
2022/06/09 02:25:23;;;;;;;1.97;1.63;;;;;;;16.54;85.03;98661.41;5096959;28;20050;-63
2022/06/09 02:27:55;;;;;;;0.93;0.83;;;;;;;16.54;84.99;98663.97;5097153;28;20399;-63
2022/06/09 02:30:26;;;;;;;0.93;0.93;;;;;;;16.55;85.07;98663.09;5097296;28;20052;-63
2022/06/09 02:33:23;;;;;;;1.23;1.13;;;;;;;16.58;85.37;98661.22;5096778;28;20043;-63
2022/06/09 02:36:01;;;;;;;0.70;0.70;;;;;;;16.65;85.35;98664.41;5096618;28;20062;-62
2022/06/09 02:38:33;;;;;;;1.65;0.65;;;;;;;16.73;85.06;98667.47;5096617;28;20044;-62
2022/06/09 02:41:02;;;;;;;0.60;0.60;;;;;;;16.74;84.95;98669.16;5096579;28;20513;-62
2022/06/09 02:43:31;;;;;;;0.80;0.80;;;;;;;16.79;84.77;98672.38;5096549;28;20530;-63
2022/06/09 02:46:03;;;;;;;1.27;1.17;;;;;;;16.83;84.82;98673.94;5096507;28;20127;-63
2022/06/09 02:48:37;;;;;;;2.65;1.33;;;;;;;16.87;84.47;98674.66;5096524;28;20272;-63
2022/06/09 02:51:19;;;;;;;1.33;1.17;;;;;;;16.88;84.39;98672.00;5096670;28;20059;-62
2022/06/09 02:53:48;;;;;;;0.68;0.68;;;;;;;16.89;84.32;98678.00;5095622;28;20110;-63
2022/06/09 02:56:17;;;;;;;0.70;0.70;;;;;;;16.92;84.09;98678.69;5096559;28;20058;-63
2022/06/09 02:58:46;;;;;;;0.70;0.70;;;;;;;16.96;84.36;98675.09;5096267;28;20070;-63
2022/06/09 03:01:15;;;;;;;0.80;0.80;;;;;;;16.95;84.32;98673.41;5096755;28;20398;-62
2022/06/09 03:03:45;;;;;;;0.98;0.85;;;;;;;16.99;84.29;98680.09;5096210;28;20044;-62
2022/06/09 03:06:14;;;;;;;1.67;1.23;;;;;;;17.04;84.40;98683.31;5096755;28;20048;-63
2022/06/09 03:08:43;;;;;;;0.63;0.63;;;;;;;17.07;84.28;98688.34;5096042;28;20044;-63
2022/06/09 03:11:20;;;;;;;0.98;0.88;;;;;;;17.09;84.34;98686.53;5095938;28;20126;-62
2022/06/09 03:13:49;;;;;;;1.30;1.20;;;;;;;17.14;84.10;98681.19;5096022;28;20079;-63
2022/06/09 03:16:19;;;;;;;1.08;0.95;;;;;;;17.19;84.14;98686.97;5095881;28;20068;-63
2022/06/09 03:18:49;;;;;;;1.27;1.17;;;;;;;17.09;84.25;98663.34;5096215;28;20068;-62
2022/06/09 03:21:19;;;;;;;1.30;1.20;;;;;;;17.21;84.15;98686.00;5095803;28;20097;-62
2022/06/09 03:23:49;;;;;;;1.38;1.27;;;;;;;17.26;84.15;98684.06;5096562;28;20066;-63
2022/06/09 03:26:22;;;;;;;0.75;0.75;;;;;;;17.27;84.32;98680.59;5095689;28;20584;-63
2022/06/09 03:28:52;;;;;;;1.73;1.63;;;;;;;17.29;84.21;98689.09;5095953;28;20445;-62
2022/06/09 03:31:30;;;;;;;0.93;0.93;;;;;;;17.34;84.35;98692.31;5095954;28;20071;-62
2022/06/09 03:34:02;;;;;;;1.52;1.42;;;;;;;17.35;84.22;98687.97;5095830;28;20451;-62
2022/06/09 03:36:32;;;;;;;1.95;1.67;;;;;;;17.31;84.13;98691.59;5095189;28;20042;-62
2022/06/09 03:39:01;;;;;;;1.42;0.98;;;;;;;17.30;84.52;98690.75;5095520;28;20076;-63
2022/06/09 03:41:29;;;;;;;0.65;0.65;;;;;;;17.34;84.54;98689.75;5095729;28;20036;-62
2022/06/09 03:44:04;;;;;;;0.88;0.85;;;;;;;17.34;84.48;98697.50;5095157;28;20044;-63
2022/06/09 03:46:33;;;;;;;0.80;0.70;;;;;;;17.37;84.58;98693.94;5095638;28;20484;-63
2022/06/09 03:49:04;;;;;;;0.77;0.77;;;;;;;17.39;84.47;98695.56;5095324;28;20032;-63
2022/06/09 03:51:33;;;;;;;1.35;1.25;;;;;;;17.43;84.41;98691.91;5095277;28;20035;-63
2022/06/09 03:54:02;;;;;;;0.80;0.80;;;;;;;17.47;84.53;98684.88;5095173;28;20376;-63
2022/06/09 03:56:31;;;;;;;2.47;2.07;;;;;;;17.50;84.37;98692.47;5095102;28;20459;-63
2022/06/09 03:59:00;;;;;;;1.23;1.17;;;;;;;17.48;84.52;98689.13;5095400;28;20123;-63
2022/06/09 04:01:32;;;;;;;1.08;0.98;;;;;;;17.55;84.47;98700.03;5095015;28;20284;-63
2022/06/09 04:04:12;;;;;;;0.80;0.80;;;;;;;17.57;84.33;98700.81;5095516;28;20071;-63
2022/06/09 04:06:43;;;;;;;0.88;0.75;;;;;;;17.59;84.49;98706.75;5093922;28;20071;-63
2022/06/09 04:09:12;;;;;;;1.27;0.75;;;;;;;17.62;84.41;98714.34;5094938;28;20089;-63
2022/06/09 04:11:44;;;;;;;1.27;1.17;;;;;;;17.60;84.32;98700.66;5094838;28;20044;-62
2022/06/09 04:14:13;;;;;;;1.17;1.08;;;;;;;17.65;84.14;98706.47;5094794;28;20055;-62
2022/06/09 04:16:44;;;;;;;2.30;1.33;;;;;;;17.64;84.30;98708.22;5094827;28;20428;-63
2022/06/09 04:19:18;;;;;;;0.82;0.82;;;;;;;17.64;84.17;98708.22;5094740;28;20816;-63
2022/06/09 04:21:47;;;;;;;3.13;1.77;;;;;;;17.63;84.40;98713.44;5094681;28;20537;-62
2022/06/09 04:24:16;;;;;;;3.55;1.17;;;;;;;17.63;84.52;98710.88;5094630;28;20036;-63
2022/06/09 04:26:48;;;;;;;1.00;0.70;;;;;;;17.66;84.60;98714.13;5094526;28;20127;-62
2022/06/09 04:29:17;;;;;;;1.30;1.20;;;;;;;17.67;84.51;98714.97;5094531;28;20285;-62
2022/06/09 04:31:52;;;;;;;1.50;1.40;;;;;;;17.75;84.43;98712.91;5093310;28;20040;-63
2022/06/09 04:34:22;;;;;;;1.42;1.23;;;;;;;17.78;84.56;98712.75;5094480;28;20052;-62
2022/06/09 04:36:52;;;;;;;2.28;1.27;;;;;;;17.79;84.47;98719.59;5093893;28;20563;-63
2022/06/09 04:39:20;;;;;;;1.48;1.38;;;;;;;17.88;84.40;98703.66;5094676;28;20056;-62
2022/06/09 04:41:52;;;;;;;0.93;0.85;;;;;;;17.89;84.43;98710.53;5094963;28;20047;-63
2022/06/09 04:44:27;;;;;;;1.85;0.90;;;;;;;17.91;84.35;98724.19;5094205;28;20055;-63
2022/06/09 04:46:56;;;;;;;2.10;1.90;;;;;;;17.97;84.49;98711.03;5094244;28;20048;-62
2022/06/09 04:49:29;;;;;;;1.13;0.93;;;;;;;18.01;84.48;98709.97;5094043;28;20055;-63
2022/06/09 04:51:58;;;;;;;0.77;0.77;;;;;;;18.05;84.19;98711.47;5094513;28;20377;-63
2022/06/09 04:54:26;;;;;;;1.02;0.95;;;;;;;18.08;84.25;98707.03;5094052;28;20040;-63
2022/06/09 04:57:05;;;;;;;1.17;0.90;;;;;;;18.16;84.23;98706.69;5093998;28;20036;-62
2022/06/09 04:59:43;;;;;;;0.60;0.60;;;;;;;18.19;84.19;98714.25;5094286;28;20048;-63
2022/06/09 05:02:12;;;;;;;0.77;0.75;;;;;;;18.24;84.15;98716.63;5094274;28;20050;-63
2022/06/09 05:04:42;;;;;;;0.60;0.60;;;;;;;18.29;84.26;98725.84;5093855;28;20093;-63
2022/06/09 05:07:11;;;;;;;2.05;1.15;;;;;;;18.22;84.18;98721.88;5093822;28;20169;-62
2022/06/09 05:09:40;;;;;;;1.13;1.03;;;;;;;18.24;84.56;98725.22;5093664;28;20105;-63
2022/06/09 05:12:08;;;;;;;0.70;0.70;;;;;;;18.26;84.43;98728.56;5093909;28;20359;-63
2022/06/09 05:14:37;;;;;;;1.17;1.10;;;;;;;18.23;84.39;98725.28;5093746;28;20040;-62
2022/06/09 05:17:09;;;;;;;1.45;1.15;;;;;;;18.19;84.39;98722.00;5093423;28;20047;-62
2022/06/09 05:19:38;;;;;;;1.63;1.02;;;;;;;18.23;84.66;98726.13;5093755;28;20059;-63
2022/06/09 05:22:08;;;;;;;1.50;1.40;;;;;;;18.21;84.43;98727.94;5094260;28;20373;-63
2022/06/09 05:24:46;;;;;;;1.52;1.30;;;;;;;18.29;84.65;98725.84;5093693;28;20086;-62
2022/06/09 05:27:15;;;;;;;0.90;0.90;;;;;;;18.43;84.73;98720.84;5093620;28;20059;-62
2022/06/09 05:29:44;;;;;;;1.17;1.07;;;;;;;18.63;84.91;98720.78;5093689;28;20466;-63
2022/06/09 05:32:16;;;;;;;1.10;1.00;;;;;;;18.70;84.65;98726.47;5089171;28;20045;-63
2022/06/09 05:34:48;;;;;;;1.48;0.98;;;;;;;18.72;84.71;98729.81;5073369;28;20311;-62
2022/06/09 05:37:19;;;;;;;0.95;0.95;;;;;;;18.80;84.64;98732.03;5071938;28;20052;-64
2022/06/09 05:45:12;;;;;;;1.40;1.10;;;;;;;19.09;84.44;98734.00;5071705;28;20434;-63
2022/06/09 05:47:41;;;;;;;1.58;1.33;;;;;;;19.10;84.08;98735.69;5073275;28;20063;-64
2022/06/09 05:50:11;;;;;;;1.25;1.10;;;;;;;19.10;83.70;98740.88;5073902;28;20033;-63
2022/06/09 05:52:42;;;;;;;2.80;1.35;;;;;;;19.06;83.39;98734.16;5073194;28;20052;-63
2022/06/09 05:55:10;;;;;;;1.00;0.93;;;;;;;19.09;83.27;98739.19;5073261;28;20052;-63
2022/06/09 05:57:44;;;;;;;1.10;1.00;;;;;;;19.20;83.07;98731.69;5073039;28;20579;-63
2022/06/09 06:00:22;;;;;;;1.33;1.00;;;;;;;19.43;82.84;98739.19;5073411;28;20048;-63
2022/06/09 06:02:51;;;;;;;1.15;1.05;;;;;;;19.55;82.66;98743.72;5073364;28;20495;-63
2022/06/09 06:08:00;;;;;;;1.00;0.97;;;;;;;19.62;82.28;98734.72;5072877;28;20071;-63
2022/06/09 06:10:29;;;;;;;0.80;0.80;;;;;;;19.68;81.83;98749.91;5073073;28;20044;-63
2022/06/09 06:12:58;;;;;;;1.03;0.93;;;;;;;19.73;81.79;98747.09;5073180;28;20496;-63
2022/06/09 06:15:27;;;;;;;1.98;1.38;;;;;;;19.80;81.90;98738.91;5072914;28;20785;-63
2022/06/09 06:17:56;;;;;;;1.35;1.13;;;;;;;19.86;81.75;98743.78;5072730;28;20062;-63
2022/06/09 06:20:26;;;;;;;0.88;0.88;;;;;;;19.99;81.57;98743.94;5072945;28;20056;-64
2022/06/09 06:22:55;;;;;;;;;;;;;;;20.10;81.79;98745.97;5073186;28;20049;-63
2022/06/09 06:25:26;;;;;;;1.27;1.20;;;;;;;20.14;81.60;98743.13;5072944;28;19924;-63
2022/06/09 06:27:55;;;;;;;0.75;0.75;;;;;;;20.12;81.48;98750.16;5072820;28;20083;-63
2022/06/09 06:30:24;;;;;;;1.50;1.27;;;;;;;20.07;81.36;98757.31;5075298;28;20048;-63
2022/06/09 06:32:55;;;;;;;1.35;1.25;;;;;;;20.17;81.54;98747.31;5076703;28;20055;-63
2022/06/09 06:35:24;;;;;;;3.80;1.95;;;;;;;20.20;81.11;98752.31;5076302;28;20056;-63
2022/06/09 06:37:53;;;;;;;1.30;1.20;;;;;;;20.16;80.83;98753.38;5076242;28;20055;-64
2022/06/09 06:40:22;;;;;;;1.65;1.40;;;;;;;20.17;80.99;98757.66;5076631;28;20048;-63
2022/06/09 06:42:52;;;;;;;0.88;0.85;;;;;;;20.17;80.71;98749.91;5076243;28;20040;-63
2022/06/09 06:45:21;;;;;;;2.13;1.10;;;;;;;20.08;81.10;98734.84;5076280;28;20052;-63
2022/06/09 06:47:50;;;;;;;2.20;1.67;;;;;;;20.26;80.71;98752.00;5092978;28;20070;-63
2022/06/09 06:50:19;;;;;;;1.65;1.55;;;;;;;20.27;80.60;98748.50;5097083;28;20063;-63
2022/06/09 06:52:48;;;;;;;1.05;0.98;;;;;;;20.25;80.29;98750.34;5096635;28;20040;-63
2022/06/09 06:55:19;;;;;;;0.73;0.73;;;;;;;20.24;80.34;98743.50;5096634;28;20499;-63
2022/06/09 06:57:48;;;;;;;1.38;0.80;;;;;;;20.30;80.69;98743.16;5096288;28;20135;-63
2022/06/09 07:00:21;;;;;;;2.78;1.67;;;;;;;20.33;80.54;98742.97;5093710;28;20071;-65
2022/06/09 07:02:51;;;;;;;1.45;1.25;;;;;;;20.33;80.72;98748.16;5093505;28;20051;-64
2022/06/09 07:05:40;;;;;;;1.80;1.65;;;;;;;20.39;80.87;98742.66;5094466;28;20060;-63
2022/06/09 07:08:09;;;;;;;1.38;1.27;;;;;;;20.44;80.80;98745.81;5096420;28;20164;-63
2022/06/09 07:10:39;;;;;;;1.45;1.35;;;;;;;20.55;80.75;98748.66;5095971;28;20081;-63
2022/06/09 07:13:08;;;;;;;1.60;1.50;;;;;;;20.54;80.60;98741.78;5094610;28;20483;-64
2022/06/09 07:15:38;;;;;;;;;;;;;;;20.60;80.55;98746.63;5093950;28;20047;-63
2022/06/09 07:18:09;;;;;;;1.73;1.63;;;;;;;20.66;80.36;98746.28;5095628;28;19919;-63
2022/06/09 07:20:39;;;;;;;1.83;1.63;;;;;;;20.66;80.03;98751.47;5095843;28;20131;-63
2022/06/09 07:23:09;;;;;;;1.95;0.88;;;;;;;20.72;79.87;98756.31;5095719;28;20097;-63
2022/06/09 07:25:39;;;;;;;0.93;0.80;;;;;;;20.84;79.37;98766.00;5096040;28;20066;-63
2022/06/09 07:28:08;;;;;;;1.55;1.23;;;;;;;21.04;79.28;98768.25;5093190;28;20048;-65
2022/06/09 07:30:38;;;;;;;1.80;1.50;;;;;;;21.25;79.03;98766.22;5095036;28;20033;-65
2022/06/09 07:33:07;;;;;;;1.15;1.05;;;;;;;21.51;78.73;98756.88;5094908;28;20071;-63
2022/06/09 07:35:38;;;;;;;1.85;1.70;;;;;;;21.80;78.10;98758.56;5095848;28;20450;-65
2022/06/09 07:38:10;;;;;;;1.88;1.33;;;;;;;22.10;77.19;98761.91;5095340;28;20044;-64
2022/06/09 07:40:41;;;;;;;2.13;1.38;;;;;;;22.20;76.44;98763.00;5090724;28;20047;-64
2022/06/09 07:43:11;;;;;;;1.17;1.08;;;;;;;22.16;75.81;98735.53;5095044;28;20047;-63
2022/06/09 07:45:42;;;;;;;2.00;1.00;;;;;;;22.47;75.43;98763.03;5096176;28;20443;-64
2022/06/09 07:48:11;;;;;;;2.10;1.58;;;;;;;22.48;74.66;98762.91;5095392;28;20052;-64
2022/06/09 07:51:00;;;;;;;2.08;1.75;;;;;;;22.42;73.85;98762.50;5095521;28;20479;-63
2022/06/09 07:53:29;;;;;;;1.40;1.30;;;;;;;22.56;73.43;98755.47;5095792;28;20070;-64
2022/06/09 07:55:58;;;;;;;1.00;0.90;;;;;;;22.86;72.79;98751.84;5095156;28;20040;-63
2022/06/09 07:58:29;;;;;;;0.90;0.90;;;;;;;23.03;73.20;98751.59;5095073;28;20495;-65
2022/06/09 08:01:00;;;;;;;1.70;1.50;;;;;;;23.25;72.82;98759.66;5095038;28;20085;-64
2022/06/09 08:03:29;;;;;;;1.30;1.20;;;;;;;23.59;72.59;98764.25;5093900;28;20391;-63
2022/06/09 08:05:57;;;;;;;1.38;1.17;;;;;;;23.67;72.21;98767.19;5085519;28;20442;-63
2022/06/09 08:08:47;;;;;;;2.25;2.00;;;;;;;23.80;71.02;98751.53;5086165;28;20124;-63
2022/06/09 08:11:15;;;;;;;0.80;0.80;;;;;;;24.12;69.78;98764.94;5090058;28;20075;-63
2022/06/09 08:13:44;;;;;;;1.20;1.13;;;;;;;24.15;68.99;98768.19;5094771;28;20066;-64
2022/06/09 08:16:15;;;;;;;1.50;1.40;;;;;;;24.27;68.80;98762.09;5089787;28;20461;-63
2022/06/09 08:18:44;;;;;;;0.95;0.90;;;;;;;24.18;68.27;98761.91;5094697;28;20056;-63
2022/06/09 08:21:13;;;;;;;1.33;1.10;;;;;;;24.02;67.44;98753.47;5089972;28;20097;-64
2022/06/09 08:23:50;;;;;;;3.63;1.20;;;;;;;24.04;67.55;98762.03;5083596;28;20051;-65
2022/06/09 08:26:20;;;;;;;1.48;0.93;;;;;;;23.93;67.69;98763.59;5081719;28;20036;-63
2022/06/09 08:28:49;;;;;;;0.73;0.73;;;;;;;23.66;67.89;98752.47;5078261;28;20032;-65
2022/06/09 08:31:19;;;;;;;2.80;1.40;;;;;;;23.68;68.83;98763.63;5085511;28;20044;-63
2022/06/09 08:33:48;;;;;;;1.92;1.38;;;;;;;23.62;69.13;98764.06;5076533;28;20097;-63
2022/06/09 08:36:17;;;;;;;1.17;1.08;;;;;;;23.61;69.23;98769.38;5084579;28;20490;-63
2022/06/09 08:38:46;;;;;;;8.80;1.95;;;;;;;23.44;69.20;98769.69;5094641;28;20048;-63
2022/06/09 08:41:41;;;;;;;1.10;1.00;;;;;;;23.30;69.09;98767.97;5087484;28;20052;-64
2022/06/09 08:44:24;;;;;;;1.42;1.08;;;;;;;23.13;69.14;98765.66;5078177;28;20064;-64
2022/06/09 08:47:07;;;;;;;0.77;0.77;;;;;;;23.31;69.14;98772.25;5091395;28;20051;-63
2022/06/09 08:49:52;;;;;;;1.95;1.50;;;;;;;23.61;69.50;98772.78;5094193;28;20052;-62
2022/06/09 08:52:34;;;;;;;2.92;1.70;;;;;;;23.73;69.04;98771.16;5092158;28;20130;-65
2022/06/09 08:55:15;;;;;;;0.80;0.80;;;;;;;23.69;68.19;98767.91;5089979;28;20090;-62
2022/06/09 08:57:46;;;;;;;1.80;0.95;;;;;;;23.57;68.06;98766.13;5091868;28;20079;-63
2022/06/09 09:00:19;;;;;;;1.83;1.35;;;;;;;23.55;68.20;98768.03;5093232;28;20047;-63
2022/06/09 09:02:53;;;;;;;0.98;0.88;;;;;;;23.59;67.87;98766.03;5093862;28;20126;-65
2022/06/09 09:05:27;;;;;;;2.25;1.92;;;;;;;23.56;67.97;98764.50;5092843;28;20044;-62
2022/06/09 09:08:06;;;;;;;1.58;1.48;;;;;;;23.26;68.53;98746.50;5092987;28;20040;-64
2022/06/09 09:10:49;;;;;;;1.38;1.23;;;;;;;23.45;69.70;98768.72;5093769;28;20048;-62
2022/06/09 09:13:32;;;;;;;2.60;1.77;;;;;;;23.55;69.23;98773.22;5093767;28;20047;-64
2022/06/09 09:16:04;;;;;;;1.23;1.13;;;;;;;23.54;68.63;98778.56;5074153;28;20118;-62
2022/06/09 09:18:45;;;;;;;0.75;0.68;;;;;;;23.29;68.27;98779.34;5073744;28;20045;-62
2022/06/09 09:21:25;;;;;;;1.30;1.10;;;;;;;23.17;68.45;98767.13;5073288;28;20045;-63
2022/06/09 09:24:01;;;;;;;0.90;0.88;;;;;;;23.18;68.98;98768.78;5083007;28;20048;-63
2022/06/09 09:26:46;;;;;;;1.25;1.13;;;;;;;23.09;69.30;98735.56;5086452;28;20054;-62
2022/06/09 09:29:18;;;;;;;1.10;1.00;;;;;;;23.31;69.39;98764.44;5073719;28;20064;-63
2022/06/09 09:31:52;;;;;;;1.33;1.23;;;;;;;23.38;69.55;98762.28;5082849;28;20049;-63
2022/06/09 09:34:25;;;;;;;1.10;1.00;;;;;;;23.50;69.32;98759.69;5093383;28;20051;-63
2022/06/09 09:36:59;;;;;;;1.10;1.05;;;;;;;23.64;68.81;98756.97;5093562;28;20046;-63
2022/06/09 09:39:40;;;;;;;1.23;1.13;;;;;;;23.72;68.41;98743.41;5093777;28;20499;-63
2022/06/09 09:42:12;;;;;;;1.13;0.90;;;;;;;23.81;67.77;98746.22;5093985;28;20048;-63
2022/06/09 09:44:40;;;;;;;1.38;1.27;;;;;;;24.06;67.33;98742.72;5093747;28;20407;-63
2022/06/09 09:47:25;;;;;;;1.47;1.27;;;;;;;24.28;66.29;98742.06;5093679;28;20036;-63
2022/06/09 09:50:04;;;;;;;1.15;1.05;;;;;;;24.20;64.50;98739.16;5093445;28;20364;-62
2022/06/09 09:52:39;;;;;;;1.05;1.00;;;;;;;23.97;64.51;98697.25;5085397;28;20071;-63
2022/06/09 09:55:27;;;;;;;3.78;2.45;;;;;;;24.19;64.69;98735.72;5087408;28;20048;-63
2022/06/09 09:58:21;;;;;;;0.70;0.70;;;;;;;24.27;65.74;98743.00;5090371;28;20101;-63
2022/06/09 10:00:54;;;;;;;1.42;0.95;;;;;;;24.26;65.05;98728.31;5089445;28;20036;-63
2022/06/09 10:09:13;;;;;;;1.30;1.15;;;;;;;24.25;65.33;98737.06;5097088;28;20043;-64
2022/06/09 10:11:58;;;;;;;0.60;0.60;;;;;;;24.04;65.04;98728.97;5096808;28;20514;-65
2022/06/09 10:14:42;;;;;;;1.25;1.15;;;;;;;23.99;65.59;98725.84;5097346;28;20046;-64
2022/06/09 10:17:33;;;;;;;0.65;0.65;;;;;;;23.99;65.58;98726.66;5096987;28;20446;-64
2022/06/09 10:20:37;;;;;;;0.80;0.80;;;;;;;24.04;65.92;98702.06;5096935;28;20044;-64
2022/06/09 10:23:31;;;;;;;3.13;1.15;;;;;;;24.41;66.17;98724.56;5097494;28;20499;-64
2022/06/09 10:26:06;;;;;;;0.68;0.68;;;;;;;24.73;65.18;98722.25;5094542;28;20048;-65
2022/06/09 10:28:48;;;;;;;0.65;0.63;;;;;;;25.07;64.59;98727.50;5085329;28;20452;-66
2022/06/09 10:31:29;;;;;;;0.70;0.70;;;;;;;25.02;63.16;98732.22;5076400;28;20048;-65
2022/06/09 10:34:01;;;;;;;3.10;1.00;;;;;;;24.98;62.51;98732.56;5076531;28;20045;-65
2022/06/09 10:36:44;;;;;;;1.30;0.95;;;;;;;24.86;62.64;98736.91;5076468;28;20106;-64
2022/06/09 10:39:23;;;;;;;1.33;0.98;;;;;;;24.72;62.90;98734.44;5091156;28;20452;-64
2022/06/09 10:41:56;;;;;;;0.43;0.43;;;;;;;24.64;64.14;98728.97;5095741;28;20090;-65
2022/06/09 10:44:32;;;;;;;0.93;0.85;;;;;;;24.66;63.25;98727.09;5096111;28;20513;-64
2022/06/09 10:55:30;;;;;;;;;;;;;;;24.87;63.42;98725.53;5096719;28;20051;-65
2022/06/09 10:58:10;;;;;;;0.93;0.88;;;;;;;24.89;63.90;98733.22;5096388;28;19919;-63
2022/06/09 11:00:42;;;;;;;2.90;0.70;;;;;;;24.79;64.25;98727.88;5100993;28;20044;-63
2022/06/09 11:03:20;;;;;;;0.80;0.70;;;;;;;24.71;63.91;98724.97;5076235;28;20070;-63
2022/06/09 11:06:11;;;;;;;2.15;1.52;;;;;;;24.58;64.05;98724.19;5076096;28;20094;-63
2022/06/09 11:08:53;;;;;;;1.70;1.58;;;;;;;24.62;64.13;98730.84;5074569;28;20407;-64
2022/06/09 11:11:34;;;;;;;5.07;1.85;;;;;;;24.73;63.64;98727.47;5078059;28;20040;-64
2022/06/09 11:14:15;;;;;;;0.98;0.90;;;;;;;24.61;63.17;98729.19;5096062;28;20055;-63
2022/06/09 11:16:58;;;;;;;0.95;0.85;;;;;;;24.59;63.82;98728.47;5085685;28;20051;-63
2022/06/09 11:19:45;;;;;;;0.63;0.63;;;;;;;24.63;63.92;98722.91;5076795;28;20064;-64
2022/06/09 11:22:25;;;;;;;2.05;0.93;;;;;;;24.53;63.81;98721.09;5093087;28;20040;-63
2022/06/09 11:25:02;;;;;;;1.30;1.17;;;;;;;24.56;63.95;98715.66;5093663;28;20501;-64
2022/06/09 11:27:43;;;;;;;1.38;1.13;;;;;;;24.75;63.89;98715.97;5092632;28;20044;-64
2022/06/09 11:30:22;;;;;;;0.60;0.60;;;;;;;24.95;63.32;98717.97;5092905;28;20044;-63
2022/06/09 11:33:03;;;;;;;1.17;0.90;;;;;;;25.19;62.60;98716.09;5092729;28;20043;-63
2022/06/09 11:35:46;;;;;;;0.77;0.70;;;;;;;25.42;62.36;98710.91;5095296;28;20499;-63
2022/06/09 11:38:31;;;;;;;2.78;2.15;;;;;;;25.35;61.14;98692.25;5075071;28;20045;-64
2022/06/09 11:41:09;;;;;;;1.27;1.10;;;;;;;25.25;59.84;98705.19;5075175;28;20045;-63
2022/06/09 11:44:08;;;;;;;0.70;0.70;;;;;;;25.05;60.36;98703.25;5075193;28;20040;-62
2022/06/09 11:46:39;;;;;;;;;;;;;;;24.95;61.03;98697.09;5074756;28;20052;-63
2022/06/09 11:49:16;;;;;;;1.30;1.20;;;;;;;24.82;60.70;98696.31;5075073;28;19920;-63
2022/06/09 11:51:45;;;;;;;0.57;0.57;;;;;;;24.65;61.00;98689.72;5075125;28;20068;-63
2022/06/09 11:54:41;;;;;;;0.65;0.65;;;;;;;24.62;60.97;98696.91;5080795;28;20044;-63
2022/06/09 11:57:25;;;;;;;0.52;0.52;;;;;;;24.44;61.77;98698.28;5076244;28;20044;-63
2022/06/09 11:59:59;;;;;;;1.45;1.15;;;;;;;24.43;62.30;98704.41;5074866;28;20136;-62
2022/06/09 12:02:55;;;;;;;0.82;0.75;;;;;;;24.45;61.97;98697.34;5074684;28;20090;-62
2022/06/09 12:05:30;;;;;;;1.08;0.85;;;;;;;24.44;61.62;98700.88;5074802;28;20127;-63
2022/06/09 12:08:15;;;;;;;0.88;0.80;;;;;;;24.31;62.10;98700.09;5086207;28;20402;-62
2022/06/09 12:11:07;;;;;;;1.08;0.98;;;;;;;24.28;62.39;98693.31;5089127;28;20041;-64
2022/06/09 12:13:47;;;;;;;0.60;0.60;;;;;;;24.32;63.26;98699.16;5083496;28;20072;-64
2022/06/09 12:16:30;;;;;;;0.52;0.52;;;;;;;24.33;63.45;98693.00;5074888;28;20044;-63
2022/06/09 12:19:12;;;;;;;1.02;0.88;;;;;;;24.21;64.14;98699.13;5074290;28;20051;-64
2022/06/09 12:21:44;;;;;;;0.65;0.65;;;;;;;24.05;64.24;98688.91;5084834;28;20044;-62
2022/06/09 12:24:46;;;;;;;0.73;0.73;;;;;;;23.99;64.39;98700.59;5094567;28;20411;-63
2022/06/09 12:27:40;;;;;;;0.77;0.77;;;;;;;23.95;64.72;98708.75;5093469;28;20051;-62
2022/06/09 12:30:35;;;;;;;1.15;1.05;;;;;;;23.80;65.54;98707.22;5094501;28;20044;-63